sensor_id;sensor_type;location;lat;lon;timestamp;pressure;altitude;pressure_sealevel;temperature;humidity
69171;BME280;56279;47.902;12.308;2023-02-28T00:01:54;95824.72;;;-2.97;79.96
69171;BME280;56279;47.902;12.308;2023-02-28T00:03:55;95819.72;;;-2.98;79.76
69171;BME280;56279;47.902;12.308;2023-02-28T00:05:59;95826.66;;;-2.99;80.21
69171;BME280;56279;47.902;12.308;2023-02-28T00:08:00;95817.31;;;-3.00;79.88
69171;BME280;56279;47.902;12.308;2023-02-28T00:10:02;95814.94;;;-3.01;79.69
69171;BME280;56279;47.902;12.308;2023-02-28T00:12:03;95814.94;;;-3.01;80.38
69171;BME280;56279;47.902;12.308;2023-02-28T00:14:10;95814.13;;;-3.02;80.22
69171;BME280;56279;47.902;12.308;2023-02-28T00:16:16;95820.25;;;-3.03;80.22
69171;BME280;56279;47.902;12.308;2023-02-28T00:18:18;95815.09;;;-3.03;80.23
69171;BME280;56279;47.902;12.308;2023-02-28T00:20:19;95822.84;;;-3.03;80.19
69171;BME280;56279;47.902;12.308;2023-02-28T00:22:21;95820.25;;;-3.03;80.27
69171;BME280;56279;47.902;12.308;2023-02-28T00:24:22;95813.50;;;-3.04;80.54
69171;BME280;56279;47.902;12.308;2023-02-28T00:26:24;95813.50;;;-3.04;80.26
69171;BME280;56279;47.902;12.308;2023-02-28T00:28:25;95819.66;;;-3.05;80.17
69171;BME280;56279;47.902;12.308;2023-02-28T00:30:27;95814.84;;;-3.08;80.16
69171;BME280;56279;47.902;12.308;2023-02-28T00:32:28;95804.69;;;-3.09;80.02
69171;BME280;56279;47.902;12.308;2023-02-28T00:34:30;95807.47;;;-3.11;80.30
69171;BME280;56279;47.902;12.308;2023-02-28T00:36:31;95819.75;;;-3.13;80.71
69171;BME280;56279;47.902;12.308;2023-02-28T00:38:33;95810.59;;;-3.15;80.34
69171;BME280;56279;47.902;12.308;2023-02-28T00:40:35;95811.75;;;-3.18;80.27
69171;BME280;56279;47.902;12.308;2023-02-28T00:42:36;95810.13;;;-3.19;80.66
69171;BME280;56279;47.902;12.308;2023-02-28T00:44:38;95795.47;;;-3.18;80.40
69171;BME280;56279;47.902;12.308;2023-02-28T00:46:39;95802.41;;;-3.19;80.44
69171;BME280;56279;47.902;12.308;2023-02-28T00:48:40;95805.97;;;-3.20;80.59
69171;BME280;56279;47.902;12.308;2023-02-28T00:50:42;95792.06;;;-3.19;81.13
69171;BME280;56279;47.902;12.308;2023-02-28T00:52:44;95798.25;;;-3.20;80.68
69171;BME280;56279;47.902;12.308;2023-02-28T00:54:45;95790.66;;;-3.21;80.70
69171;BME280;56279;47.902;12.308;2023-02-28T00:56:49;95787.91;;;-3.20;80.53
69171;BME280;56279;47.902;12.308;2023-02-28T00:58:51;95788.06;;;-3.21;81.03
69171;BME280;56279;47.902;12.308;2023-02-28T01:00:55;95785.50;;;-3.21;80.51
69171;BME280;56279;47.902;12.308;2023-02-28T01:02:57;95787.28;;;-3.22;81.18
69171;BME280;56279;47.902;12.308;2023-02-28T01:07:42;95789.22;;;-3.24;80.42
69171;BME280;56279;47.902;12.308;2023-02-28T01:09:43;95784.06;;;-3.24;80.52
69171;BME280;56279;47.902;12.308;2023-02-28T01:11:45;95782.50;;;-3.25;80.74
69171;BME280;56279;47.902;12.308;2023-02-28T01:13:46;95791.81;;;-3.24;81.33
69171;BME280;56279;47.902;12.308;2023-02-28T01:15:53;95782.66;;;-3.26;81.41
69171;BME280;56279;47.902;12.308;2023-02-28T01:17:56;95782.03;;;-3.28;80.82
69171;BME280;56279;47.902;12.308;2023-02-28T01:19:57;95784.63;;;-3.28;81.72
69171;BME280;56279;47.902;12.308;2023-02-28T01:22:04;95788.00;;;-3.28;81.04
69171;BME280;56279;47.902;12.308;2023-02-28T01:24:06;95780.59;;;-3.31;81.38
69171;BME280;56279;47.902;12.308;2023-02-28T01:26:12;95780.59;;;-3.31;81.36
69171;BME280;56279;47.902;12.308;2023-02-28T01:28:14;95774.22;;;-3.35;81.19
69171;BME280;56279;47.902;12.308;2023-02-28T01:30:15;95780.34;;;-3.36;81.28
69171;BME280;56279;47.902;12.308;2023-02-28T01:32:17;95784.72;;;-3.36;81.71
69171;BME280;56279;47.902;12.308;2023-02-28T01:34:18;95785.88;;;-3.39;81.31
69171;BME280;56279;47.902;12.308;2023-02-28T01:36:23;95780.09;;;-3.41;81.41
69171;BME280;56279;47.902;12.308;2023-02-28T01:38:25;95786.03;;;-3.40;81.29
69171;BME280;56279;47.902;12.308;2023-02-28T01:40:28;95784.47;;;-3.41;82.13
69171;BME280;56279;47.902;12.308;2023-02-28T01:42:30;95786.22;;;-3.42;81.61
69171;BME280;56279;47.902;12.308;2023-02-28T01:44:55;95790.44;;;-3.41;82.10
69171;BME280;56279;47.902;12.308;2023-02-28T01:46:57;95780.47;;;-3.44;81.57
69171;BME280;56279;47.902;12.308;2023-02-28T01:49:03;95789.00;;;-3.43;82.08
69171;BME280;56279;47.902;12.308;2023-02-28T01:51:25;95789.97;;;-3.44;81.53
69171;BME280;56279;47.902;12.308;2023-02-28T01:53:33;95777.41;;;-3.47;82.41
69171;BME280;56279;47.902;12.308;2023-02-28T01:55:36;95786.16;;;-3.48;82.04
69171;BME280;56279;47.902;12.308;2023-02-28T01:57:44;95779.22;;;-3.48;82.08
69171;BME280;56279;47.902;12.308;2023-02-28T01:59:52;95771.50;;;-3.48;82.36
69171;BME280;56279;47.902;12.308;2023-02-28T02:01:55;95770.84;;;-3.50;82.49
69171;BME280;56279;47.902;12.308;2023-02-28T02:03:59;95768.25;;;-3.50;82.23
69171;BME280;56279;47.902;12.308;2023-02-28T02:06:03;95764.09;;;-3.51;81.74
69171;BME280;56279;47.902;12.308;2023-02-28T02:08:11;95766.88;;;-3.53;82.81
69171;BME280;56279;47.902;12.308;2023-02-28T02:10:18;95766.88;;;-3.53;82.46
69171;BME280;56279;47.902;12.308;2023-02-28T02:12:32;95760.09;;;-3.54;82.36
69171;BME280;56279;47.902;12.308;2023-02-28T02:14:48;95755.47;;;-3.58;82.85
69171;BME280;56279;47.902;12.308;2023-02-28T02:17:20;95756.09;;;-3.56;82.97
69171;BME280;56279;47.902;12.308;2023-02-28T02:19:52;95752.28;;;-3.60;82.73
69171;BME280;56279;47.902;12.308;2023-02-28T02:29:08;95757.34;;;-3.67;83.13
69171;BME280;56279;47.902;12.308;2023-02-28T02:31:19;95751.41;;;-3.67;82.57
69171;BME280;56279;47.902;12.308;2023-02-28T02:42:16;95747.47;;;-3.63;83.58
69171;BME280;56279;47.902;12.308;2023-02-28T02:44:40;95753.63;;;-3.64;83.29
69171;BME280;56279;47.902;12.308;2023-02-28T02:46:47;95754.78;;;-3.67;82.91
69171;BME280;56279;47.902;12.308;2023-02-28T02:48:52;95753.97;;;-3.67;83.09
69171;BME280;56279;47.902;12.308;2023-02-28T02:50:59;95757.50;;;-3.68;83.10
69171;BME280;56279;47.902;12.308;2023-02-28T02:53:03;95753.97;;;-3.67;83.20
69171;BME280;56279;47.902;12.308;2023-02-28T02:55:08;95757.50;;;-3.68;83.93
69171;BME280;56279;47.902;12.308;2023-02-28T02:57:40;95764.28;;;-3.67;83.53
69171;BME280;56279;47.902;12.308;2023-02-28T02:59:45;95756.28;;;-3.72;83.44
69171;BME280;56279;47.902;12.308;2023-02-28T03:01:53;95755.03;;;-3.76;83.44
69171;BME280;56279;47.902;12.308;2023-02-28T03:03:57;95764.09;;;-3.80;83.63
69171;BME280;56279;47.902;12.308;2023-02-28T03:06:06;95767.84;;;-3.83;83.84
69171;BME280;56279;47.902;12.308;2023-02-28T03:08:08;95765.63;;;-3.86;84.22
69171;BME280;56279;47.902;12.308;2023-02-28T03:12:41;95769.59;;;-3.98;83.96
69171;BME280;56279;47.902;12.308;2023-02-28T03:15:12;95762.75;;;-4.05;84.35
69171;BME280;56279;47.902;12.308;2023-02-28T03:21:43;95766.28;;;-4.21;83.27
69171;BME280;56279;47.902;12.308;2023-02-28T03:24:03;95767.84;;;-4.20;83.79
69171;BME280;56279;47.902;12.308;2023-02-28T03:26:11;95775.78;;;-4.22;83.68
69171;BME280;56279;47.902;12.308;2023-02-28T03:32:28;95772.91;;;-4.27;83.64
69171;BME280;56279;47.902;12.308;2023-02-28T03:34:34;95773.91;;;-4.28;83.54
69171;BME280;56279;47.902;12.308;2023-02-28T03:36:41;95770.72;;;-4.30;84.25
69171;BME280;56279;47.902;12.308;2023-02-28T03:39:22;95763.13;;;-4.31;83.55
69171;BME280;56279;47.902;12.308;2023-02-28T03:41:31;95766.84;;;-4.34;84.30
69171;BME280;56279;47.902;12.308;2023-02-28T03:43:37;95766.09;;;-4.34;84.16
69171;BME280;56279;47.902;12.308;2023-02-28T03:45:41;95755.78;;;-4.34;84.25
69171;BME280;56279;47.902;12.308;2023-02-28T03:47:51;95765.72;;;-4.31;84.46
69171;BME280;56279;47.902;12.308;2023-02-28T03:50:16;95764.75;;;-4.30;85.04
69171;BME280;56279;47.902;12.308;2023-02-28T03:52:22;95769.09;;;-4.31;84.54
69171;BME280;56279;47.902;12.308;2023-02-28T03:54:30;95766.50;;;-4.31;84.90
69171;BME280;56279;47.902;12.308;2023-02-28T03:56:38;95764.13;;;-4.32;84.43
69171;BME280;56279;47.902;12.308;2023-02-28T03:59:00;95766.69;;;-4.32;84.81
69171;BME280;56279;47.902;12.308;2023-02-28T04:01:14;95771.22;;;-4.34;84.71
69171;BME280;56279;47.902;12.308;2023-02-28T04:03:16;95768.00;;;-4.36;85.20
69171;BME280;56279;47.902;12.308;2023-02-28T04:05:22;95775.72;;;-4.36;85.05
69171;BME280;56279;47.902;12.308;2023-02-28T04:07:23;95769.94;;;-4.38;84.95
69171;BME280;56279;47.902;12.308;2023-02-28T04:09:25;95776.09;;;-4.39;85.38
69171;BME280;56279;47.902;12.308;2023-02-28T04:11:40;95773.25;;;-4.44;84.67
69171;BME280;56279;47.902;12.308;2023-02-28T04:13:42;95784.50;;;-4.45;84.71
69171;BME280;56279;47.902;12.308;2023-02-28T04:15:44;95782.09;;;-4.47;85.05
69171;BME280;56279;47.902;12.308;2023-02-28T04:17:45;95784.88;;;-4.48;84.90
69171;BME280;56279;47.902;12.308;2023-02-28T04:19:46;95784.88;;;-4.48;85.89
69171;BME280;56279;47.902;12.308;2023-02-28T04:21:50;95782.44;;;-4.50;85.81
69171;BME280;56279;47.902;12.308;2023-02-28T04:23:51;95786.63;;;-4.49;85.28
69171;BME280;56279;47.902;12.308;2023-02-28T04:25:55;95785.81;;;-4.49;85.69
69171;BME280;56279;47.902;12.308;2023-02-28T04:27:56;95791.94;;;-4.50;85.65
69171;BME280;56279;47.902;12.308;2023-02-28T04:29:57;95793.72;;;-4.51;86.04
69171;BME280;56279;47.902;12.308;2023-02-28T04:31:59;95792.91;;;-4.51;85.55
69171;BME280;56279;47.902;12.308;2023-02-28T04:34:01;95787.97;;;-4.53;85.49
69171;BME280;56279;47.902;12.308;2023-02-28T04:36:05;95789.53;;;-4.52;85.54
69171;BME280;56279;47.902;12.308;2023-02-28T04:38:07;95786.16;;;-4.52;85.37
69171;BME280;56279;47.902;12.308;2023-02-28T04:40:08;95788.09;;;-4.54;85.84
69171;BME280;56279;47.902;12.308;2023-02-28T04:42:11;95787.47;;;-4.56;86.17
69171;BME280;56279;47.902;12.308;2023-02-28T04:44:13;95787.66;;;-4.58;85.59
69171;BME280;56279;47.902;12.308;2023-02-28T04:46:14;95783.47;;;-4.59;85.76
69171;BME280;56279;47.902;12.308;2023-02-28T04:48:16;95787.03;;;-4.60;86.03
69171;BME280;56279;47.902;12.308;2023-02-28T04:50:17;95784.63;;;-4.61;85.85
69171;BME280;56279;47.902;12.308;2023-02-28T04:52:18;95788.97;;;-4.62;86.16
69171;BME280;56279;47.902;12.308;2023-02-28T04:54:20;95792.69;;;-4.64;86.82
69171;BME280;56279;47.902;12.308;2023-02-28T04:56:21;95790.09;;;-4.64;86.64
69171;BME280;56279;47.902;12.308;2023-02-28T04:58:23;95795.25;;;-4.64;87.03
69171;BME280;56279;47.902;12.308;2023-02-28T05:00:24;95793.47;;;-4.64;86.18
69171;BME280;56279;47.902;12.308;2023-02-28T05:02:26;95793.47;;;-4.64;87.06
69171;BME280;56279;47.902;12.308;2023-02-28T05:04:27;95792.53;;;-4.63;86.65
69171;BME280;56279;47.902;12.308;2023-02-28T05:10:22;95799.91;;;-4.60;87.21
69171;BME280;56279;47.902;12.308;2023-02-28T05:12:23;95809.41;;;-4.60;86.97
69171;BME280;56279;47.902;12.308;2023-02-28T05:14:25;95809.22;;;-4.59;86.22
69171;BME280;56279;47.902;12.308;2023-02-28T05:16:26;95812.59;;;-4.58;86.77
69171;BME280;56279;47.902;12.308;2023-02-28T05:18:27;95818.56;;;-4.58;87.16
69171;BME280;56279;47.902;12.308;2023-02-28T05:20:28;95821.13;;;-4.58;87.26
69171;BME280;56279;47.902;12.308;2023-02-28T05:22:30;95814.19;;;-4.57;86.44
69171;BME280;56279;47.902;12.308;2023-02-28T05:24:31;95816.00;;;-4.58;87.17
69171;BME280;56279;47.902;12.308;2023-02-28T05:26:52;95818.72;;;-4.59;86.97
69171;BME280;56279;47.902;12.308;2023-02-28T05:28:55;95821.13;;;-4.58;87.02
69171;BME280;56279;47.902;12.308;2023-02-28T05:30:57;95825.28;;;-4.57;86.68
69171;BME280;56279;47.902;12.308;2023-02-28T05:32:59;95823.72;;;-4.58;87.42
69171;BME280;56279;47.902;12.308;2023-02-28T05:35:00;95822.72;;;-4.57;87.55
69171;BME280;56279;47.902;12.308;2023-02-28T05:37:01;95822.38;;;-4.54;86.82
69171;BME280;56279;47.902;12.308;2023-02-28T05:39:05;95822.84;;;-4.50;86.82
69171;BME280;56279;47.902;12.308;2023-02-28T05:41:08;95819.13;;;-4.48;87.54
69171;BME280;56279;47.902;12.308;2023-02-28T05:43:10;95824.13;;;-4.46;87.60
69171;BME280;56279;47.902;12.308;2023-02-28T05:45:12;95820.72;;;-4.47;87.22
69171;BME280;56279;47.902;12.308;2023-02-28T05:47:14;95820.72;;;-4.47;86.94
69171;BME280;56279;47.902;12.308;2023-02-28T05:49:16;95819.78;;;-4.46;87.01
69171;BME280;56279;47.902;12.308;2023-02-28T05:51:17;95834.84;;;-4.43;87.64
69171;BME280;56279;47.902;12.308;2023-02-28T05:53:18;95831.13;;;-4.40;87.16
69171;BME280;56279;47.902;12.308;2023-02-28T05:55:20;95842.06;;;-4.38;87.35
69171;BME280;56279;47.902;12.308;2023-02-28T05:57:22;95847.69;;;-4.35;87.90
69171;BME280;56279;47.902;12.308;2023-02-28T05:59:23;95848.13;;;-4.31;87.76
69171;BME280;56279;47.902;12.308;2023-02-28T06:03:37;95847.22;;;-4.15;87.88
69171;BME280;56279;47.902;12.308;2023-02-28T06:06:05;95859.84;;;-4.06;87.80
69171;BME280;56279;47.902;12.308;2023-02-28T06:08:07;95848.06;;;-4.00;87.37
69171;BME280;56279;47.902;12.308;2023-02-28T06:10:11;95854.31;;;-3.95;87.00
69171;BME280;56279;47.902;12.308;2023-02-28T06:12:12;95856.34;;;-3.90;86.82
69171;BME280;56279;47.902;12.308;2023-02-28T06:14:19;95855.03;;;-3.86;87.42
69171;BME280;56279;47.902;12.308;2023-02-28T06:16:21;95846.31;;;-3.85;87.58
69171;BME280;56279;47.902;12.308;2023-02-28T06:18:22;95851.09;;;-3.82;86.93
69171;BME280;56279;47.902;12.308;2023-02-28T06:20:25;95850.59;;;-3.78;87.51
69171;BME280;56279;47.902;12.308;2023-02-28T06:22:30;95859.06;;;-3.69;87.52
69171;BME280;56279;47.902;12.308;2023-02-28T06:24:32;95857.53;;;-3.64;87.65
69171;BME280;56279;47.902;12.308;2023-02-28T06:26:33;95862.97;;;-3.59;87.34
69171;BME280;56279;47.902;12.308;2023-02-28T06:28:35;95862.81;;;-3.57;87.63
69171;BME280;56279;47.902;12.308;2023-02-28T06:30:37;95858.44;;;-3.57;87.02
69171;BME280;56279;47.902;12.308;2023-02-28T06:32:38;95857.66;;;-3.57;87.64
69171;BME280;56279;47.902;12.308;2023-02-28T06:34:41;95864.41;;;-3.56;87.92
69171;BME280;56279;47.902;12.308;2023-02-28T06:36:43;95862.63;;;-3.56;87.65
69171;BME280;56279;47.902;12.308;2023-02-28T06:38:44;95868.41;;;-3.54;87.90
69171;BME280;56279;47.902;12.308;2023-02-28T06:40:53;95866.03;;;-3.55;87.97
69171;BME280;56279;47.902;12.308;2023-02-28T06:42:54;95878.53;;;-3.52;87.23
69171;BME280;56279;47.902;12.308;2023-02-28T06:44:56;95882.53;;;-3.50;87.91
69171;BME280;56279;47.902;12.308;2023-02-28T06:46:57;95895.28;;;-3.48;87.08
69171;BME280;56279;47.902;12.308;2023-02-28T06:48:59;95888.78;;;-3.44;87.95
69171;BME280;56279;47.902;12.308;2023-02-28T06:51:09;95888.06;;;-3.38;87.32
69171;BME280;56279;47.902;12.308;2023-02-28T06:53:10;95889.34;;;-3.34;87.17
69171;BME280;56279;47.902;12.308;2023-02-28T06:55:12;95883.66;;;-3.29;87.27
69171;BME280;56279;47.902;12.308;2023-02-28T06:57:13;95884.69;;;-3.24;86.97
69171;BME280;56279;47.902;12.308;2023-02-28T06:59:15;95890.75;;;-3.17;87.58
69171;BME280;56279;47.902;12.308;2023-02-28T07:01:16;95897.81;;;-3.11;87.30
69171;BME280;56279;47.902;12.308;2023-02-28T07:03:18;95902.06;;;-3.03;86.77
69171;BME280;56279;47.902;12.308;2023-02-28T07:05:20;95898.59;;;-2.96;87.14
69171;BME280;56279;47.902;12.308;2023-02-28T07:07:22;95888.97;;;-2.87;86.68
69171;BME280;56279;47.902;12.308;2023-02-28T07:09:23;95899.19;;;-2.79;87.16
69171;BME280;56279;47.902;12.308;2023-02-28T07:11:30;95901.50;;;-2.69;86.89
69171;BME280;56279;47.902;12.308;2023-02-28T07:13:32;95886.06;;;-2.63;86.01
69171;BME280;56279;47.902;12.308;2023-02-28T07:15:34;95894.09;;;-2.58;86.20
69171;BME280;56279;47.902;12.308;2023-02-28T07:17:37;95889.78;;;-2.51;85.83
69171;BME280;56279;47.902;12.308;2023-02-28T07:19:39;95891.63;;;-2.45;86.07
69171;BME280;56279;47.902;12.308;2023-02-28T07:21:40;95887.53;;;-2.39;85.78
69171;BME280;56279;47.902;12.308;2023-02-28T07:23:41;95891.00;;;-2.32;85.34
69171;BME280;56279;47.902;12.308;2023-02-28T07:25:44;95891.84;;;-2.25;85.75
69171;BME280;56279;47.902;12.308;2023-02-28T07:27:50;95894.34;;;-2.17;85.49
69171;BME280;56279;47.902;12.308;2023-02-28T07:30:33;95901.59;;;-2.06;84.93
69171;BME280;56279;47.902;12.308;2023-02-28T07:32:58;95898.50;;;-1.95;84.89
69171;BME280;56279;47.902;12.308;2023-02-28T07:34:59;95900.19;;;-1.87;84.47
69171;BME280;56279;47.902;12.308;2023-02-28T07:37:01;95896.69;;;-1.80;84.84
69171;BME280;56279;47.902;12.308;2023-02-28T07:39:04;95904.66;;;-1.75;84.41
69171;BME280;56279;47.902;12.308;2023-02-28T07:41:42;95899.78;;;-1.63;84.05
69171;BME280;56279;47.902;12.308;2023-02-28T07:43:44;95901.25;;;-1.54;83.95
69171;BME280;56279;47.902;12.308;2023-02-28T07:45:46;95899.53;;;-1.47;83.82
69171;BME280;56279;47.902;12.308;2023-02-28T07:48:08;95899.19;;;-1.38;83.21
69171;BME280;56279;47.902;12.308;2023-02-28T07:50:41;95900.81;;;-1.30;83.45
69171;BME280;56279;47.902;12.308;2023-02-28T07:53:43;95889.94;;;-1.19;82.92
69171;BME280;56279;47.902;12.308;2023-02-28T07:55:48;95894.78;;;-1.09;83.06
69171;BME280;56279;47.902;12.308;2023-02-28T07:57:49;95889.88;;;-0.98;82.75
69171;BME280;56279;47.902;12.308;2023-02-28T07:59:51;95882.75;;;-0.89;82.73
69171;BME280;56279;47.902;12.308;2023-02-28T08:01:52;95890.56;;;-0.83;82.36
69171;BME280;56279;47.902;12.308;2023-02-28T08:03:53;95895.56;;;-0.75;82.33
69171;BME280;56279;47.902;12.308;2023-02-28T08:05:55;95890.22;;;-0.66;82.58
69171;BME280;56279;47.902;12.308;2023-02-28T08:07:57;95899.66;;;-0.52;81.93
69171;BME280;56279;47.902;12.308;2023-02-28T08:09:58;95897.91;;;-0.39;81.74
69171;BME280;56279;47.902;12.308;2023-02-28T08:11:59;95897.75;;;-0.18;81.47
69171;BME280;56279;47.902;12.308;2023-02-28T08:14:05;95906.78;;;-0.07;81.56
69171;BME280;56279;47.902;12.308;2023-02-28T08:16:13;95909.56;;;-0.02;80.98
69171;BME280;56279;47.902;12.308;2023-02-28T08:18:25;95903.78;;;0.03;80.99
69171;BME280;56279;47.902;12.308;2023-02-28T08:24:24;95908.22;;;0.15;81.09
69171;BME280;56279;47.902;12.308;2023-02-28T08:26:39;95907.81;;;0.25;80.50
69171;BME280;56279;47.902;12.308;2023-02-28T08:30:05;95904.63;;;0.29;79.92
69171;BME280;56279;47.902;12.308;2023-02-28T08:36:50;95910.41;;;0.38;79.41
69171;BME280;56279;47.902;12.308;2023-02-28T08:38:54;95908.84;;;0.30;79.82
69171;BME280;56279;47.902;12.308;2023-02-28T08:41:03;95914.38;;;0.14;78.94
69171;BME280;56279;47.902;12.308;2023-02-28T08:45:32;95921.78;;;0.04;78.79
69171;BME280;56279;47.902;12.308;2023-02-28T08:47:33;95921.56;;;-0.01;78.74
69171;BME280;56279;47.902;12.308;2023-02-28T08:49:36;95926.72;;;-0.08;78.57
69171;BME280;56279;47.902;12.308;2023-02-28T08:51:38;95923.34;;;-0.08;79.14
69171;BME280;56279;47.902;12.308;2023-02-28T08:55:45;95922.97;;;0.02;78.98
69171;BME280;56279;47.902;12.308;2023-02-28T08:57:47;95932.16;;;0.11;78.15
69171;BME280;56279;47.902;12.308;2023-02-28T08:59:48;95929.97;;;0.21;78.58
69171;BME280;56279;47.902;12.308;2023-02-28T09:01:50;95936.97;;;0.27;78.10
69171;BME280;56279;47.902;12.308;2023-02-28T09:03:53;95936.38;;;0.31;77.38
69171;BME280;56279;47.902;12.308;2023-02-28T09:06:02;95939.19;;;0.30;76.85
69171;BME280;56279;47.902;12.308;2023-02-28T09:08:03;95938.00;;;0.32;77.03
69171;BME280;56279;47.902;12.308;2023-02-28T09:10:04;95936.41;;;0.44;76.97
69171;BME280;56279;47.902;12.308;2023-02-28T09:12:06;95940.41;;;0.53;76.93
69171;BME280;56279;47.902;12.308;2023-02-28T09:14:07;95945.19;;;0.63;76.66
69171;BME280;56279;47.902;12.308;2023-02-28T09:16:11;95955.16;;;0.73;76.37
69171;BME280;56279;47.902;12.308;2023-02-28T09:18:13;95951.56;;;0.80;76.21
69171;BME280;56279;47.902;12.308;2023-02-28T09:20:15;95955.38;;;0.84;75.92
69171;BME280;56279;47.902;12.308;2023-02-28T09:22:16;95947.78;;;0.89;75.80
69171;BME280;56279;47.902;12.308;2023-02-28T09:24:17;95953.16;;;0.94;75.83
69171;BME280;56279;47.902;12.308;2023-02-28T09:26:24;95964.16;;;0.96;75.59
69171;BME280;56279;47.902;12.308;2023-02-28T09:28:26;95954.38;;;1.05;75.45
69171;BME280;56279;47.902;12.308;2023-02-28T09:30:27;95965.94;;;1.09;75.50
69171;BME280;56279;47.902;12.308;2023-02-28T09:32:28;95962.16;;;1.11;75.69
69171;BME280;56279;47.902;12.308;2023-02-28T09:34:31;95966.75;;;1.16;75.03
69171;BME280;56279;47.902;12.308;2023-02-28T09:36:32;95975.50;;;1.21;75.36
69171;BME280;56279;47.902;12.308;2023-02-28T09:38:34;95971.91;;;1.29;75.55
69171;BME280;56279;47.902;12.308;2023-02-28T09:40:39;95971.72;;;1.30;74.58
69171;BME280;56279;47.902;12.308;2023-02-28T09:42:47;95971.13;;;1.35;75.34
69171;BME280;56279;47.902;12.308;2023-02-28T09:44:50;95979.28;;;1.38;74.72
69171;BME280;56279;47.902;12.308;2023-02-28T09:46:57;95978.69;;;1.43;75.03
69171;BME280;56279;47.902;12.308;2023-02-28T09:49:05;95976.69;;;1.52;74.14
69171;BME280;56279;47.902;12.308;2023-02-28T09:51:23;95986.22;;;1.64;74.57
69171;BME280;56279;47.902;12.308;2023-02-28T10:04:16;95989.69;;;1.52;73.92
69171;BME280;56279;47.902;12.308;2023-02-28T10:06:23;95995.81;;;1.64;73.40
69171;BME280;56279;47.902;12.308;2023-02-28T10:08:31;95999.22;;;1.77;73.90
69171;BME280;56279;47.902;12.308;2023-02-28T10:10:40;95994.16;;;1.82;73.02
69171;BME280;56279;47.902;12.308;2023-02-28T10:12:44;96001.78;;;1.84;73.31
69171;BME280;56279;47.902;12.308;2023-02-28T10:14:52;95998.38;;;1.83;72.98
69171;BME280;56279;47.902;12.308;2023-02-28T10:19:29;96002.56;;;1.91;72.65
69171;BME280;56279;47.902;12.308;2023-02-28T10:21:47;96003.38;;;1.85;73.05
69171;BME280;56279;47.902;12.308;2023-02-28T10:34:13;96001.47;;;1.48;72.58
69171;BME280;56279;47.902;12.308;2023-02-28T10:36:18;95996.25;;;1.61;72.25
69171;BME280;56279;47.902;12.308;2023-02-28T10:38:31;96000.84;;;1.65;71.82
69171;BME280;56279;47.902;12.308;2023-02-28T10:40:34;95999.88;;;1.53;71.69
69171;BME280;56279;47.902;12.308;2023-02-28T10:47:52;96011.84;;;1.54;71.99
69171;BME280;56279;47.902;12.308;2023-02-28T10:49:55;96016.69;;;1.51;72.70
69171;BME280;56279;47.902;12.308;2023-02-28T10:51:59;96019.09;;;1.46;72.37
69171;BME280;56279;47.902;12.308;2023-02-28T10:54:02;96016.47;;;1.46;72.33
69171;BME280;56279;47.902;12.308;2023-02-28T10:58:25;96022.09;;;1.36;72.88
69171;BME280;56279;47.902;12.308;2023-02-28T11:00:33;96019.72;;;1.34;72.78
69171;BME280;56279;47.902;12.308;2023-02-28T11:02:36;96014.91;;;1.31;73.28
69171;BME280;56279;47.902;12.308;2023-02-28T11:04:53;96015.28;;;1.28;73.50
69171;BME280;56279;47.902;12.308;2023-02-28T11:07:00;96015.13;;;1.23;73.34
69171;BME280;56279;47.902;12.308;2023-02-28T11:09:19;96011.91;;;1.21;73.89
69171;BME280;56279;47.902;12.308;2023-02-28T11:11:24;96015.50;;;1.27;72.97
69171;BME280;56279;47.902;12.308;2023-02-28T11:13:34;96012.13;;;1.33;72.96
69171;BME280;56279;47.902;12.308;2023-02-28T11:15:36;96009.09;;;1.29;73.22
69171;BME280;56279;47.902;12.308;2023-02-28T11:17:37;96014.69;;;1.26;72.47
69171;BME280;56279;47.902;12.308;2023-02-28T11:19:44;96009.50;;;1.26;73.50
69171;BME280;56279;47.902;12.308;2023-02-28T11:21:53;96011.31;;;1.26;72.89
69171;BME280;56279;47.902;12.308;2023-02-28T11:24:14;96008.31;;;1.29;73.61
69171;BME280;56279;47.902;12.308;2023-02-28T11:26:44;96005.69;;;1.35;73.10
69171;BME280;56279;47.902;12.308;2023-02-28T11:28:45;96010.09;;;1.42;73.39
69171;BME280;56279;47.902;12.308;2023-02-28T11:33:32;95992.28;;;1.45;72.26
69171;BME280;56279;47.902;12.308;2023-02-28T11:35:36;95999.91;;;1.40;73.02
69171;BME280;56279;47.902;12.308;2023-02-28T11:37:39;95997.09;;;1.42;72.28
69171;BME280;56279;47.902;12.308;2023-02-28T11:39:41;95993.88;;;1.46;73.02
69171;BME280;56279;47.902;12.308;2023-02-28T11:47:10;95999.22;;;1.71;71.98
69171;BME280;56279;47.902;12.308;2023-02-28T11:49:34;95997.81;;;1.75;72.63
69171;BME280;56279;47.902;12.308;2023-02-28T11:51:48;96000.38;;;1.88;72.15
69171;BME280;56279;47.902;12.308;2023-02-28T11:54:09;96000.56;;;1.93;72.36
69171;BME280;56279;47.902;12.308;2023-02-28T11:56:37;95994.91;;;2.02;72.64
69171;BME280;56279;47.902;12.308;2023-02-28T11:58:52;95984.03;;;2.19;72.30
69171;BME280;56279;47.902;12.308;2023-02-28T12:01:23;95988.81;;;2.22;71.82
69171;BME280;56279;47.902;12.308;2023-02-28T12:03:33;95984.75;;;2.32;72.04
69171;BME280;56279;47.902;12.308;2023-02-28T12:10:42;95977.47;;;2.41;71.47
69171;BME280;56279;47.902;12.308;2023-02-28T12:12:55;95987.47;;;2.44;71.25
69171;BME280;56279;47.902;12.308;2023-02-28T12:15:23;95979.09;;;2.42;71.77
69171;BME280;56279;47.902;12.308;2023-02-28T12:17:46;95977.88;;;2.44;70.82
69171;BME280;56279;47.902;12.308;2023-02-28T12:27:23;95970.75;;;2.89;70.40
69171;BME280;56279;47.902;12.308;2023-02-28T12:29:28;95969.88;;;2.95;70.03
69171;BME280;56279;47.902;12.308;2023-02-28T12:31:58;95965.53;;;2.89;70.07
69171;BME280;56279;47.902;12.308;2023-02-28T12:34:07;95968.31;;;2.88;69.83
69171;BME280;56279;47.902;12.308;2023-02-28T12:36:14;95967.22;;;2.77;70.42
69171;BME280;56279;47.902;12.308;2023-02-28T12:38:26;95961.63;;;2.73;70.46
69171;BME280;56279;47.902;12.308;2023-02-28T12:40:41;95961.78;;;2.78;70.91
69171;BME280;56279;47.902;12.308;2023-02-28T12:42:50;95961.53;;;2.87;70.62
69171;BME280;56279;47.902;12.308;2023-02-28T12:44:54;95965.88;;;2.93;69.75